createdAt,value
2018-08-22T00:01:01.182Z,101497.20
2018-08-22T00:04:17.397Z,101498.41
2018-08-22T00:07:34.795Z,101495.17
2018-08-22T00:10:38.080Z,101499.75
2018-08-22T00:14:02.633Z,101494.95
2018-08-22T00:17:32.839Z,101495.00
2018-08-22T00:24:24.382Z,101499.03
2018-08-22T00:27:38.030Z,101493.98
2018-08-22T00:30:49.357Z,101497.50
2018-08-22T00:37:50.538Z,101497.75
2018-08-22T00:41:08.907Z,101501.57
2018-08-22T00:44:33.152Z,101498.58
2018-08-22T00:48:00.406Z,101498.83
2018-08-22T00:55:00.891Z,101500.36
2018-08-22T00:58:10.481Z,101496.05
2018-08-22T01:01:19.236Z,101500.80
2018-08-22T01:04:46.330Z,101498.91
2018-08-22T01:07:59.211Z,101500.34
2018-08-22T01:11:32.859Z,101500.77
2018-08-22T01:14:47.942Z,101497.91
2018-08-22T01:17:53.832Z,101497.27
2018-08-22T01:24:26.085Z,101493.03
2018-08-22T01:27:42.898Z,101496.34
2018-08-22T01:31:03.968Z,101490.18
2018-08-22T01:34:14.718Z,101485.69
2018-08-22T01:37:26.923Z,101493.64
2018-08-22T01:40:43.918Z,101493.36
2018-08-22T01:43:59.728Z,101486.05
2018-08-22T01:47:30.594Z,101486.77
2018-08-22T01:50:50.124Z,101478.45
2018-08-22T01:54:04.996Z,101469.16
2018-08-22T01:57:24.981Z,101472.72
2018-08-22T02:00:44.063Z,101469.11
2018-08-22T02:04:01.572Z,101465.41
2018-08-22T02:07:21.167Z,101469.52
2018-08-22T02:10:45.537Z,101464.75
2018-08-22T02:14:02.462Z,101466.42
2018-08-22T02:17:18.280Z,101466.33
2018-08-22T02:20:27.453Z,101464.33
2018-08-22T02:23:46.860Z,101462.79
2018-08-22T02:27:01.316Z,101459.56
2018-08-22T02:30:19.265Z,101454.63
2018-08-22T02:33:42.083Z,101458.33
2018-08-22T02:36:59.338Z,101458.16
2018-08-22T02:40:17.731Z,101461.88
2018-08-22T02:43:38.094Z,101461.72
2018-08-22T02:46:59.631Z,101462.45
2018-08-22T02:50:16.636Z,101463.55
2018-08-22T02:53:35.919Z,101462.30
2018-08-22T02:57:04.581Z,101462.15
2018-08-22T03:00:31.681Z,101460.33
2018-08-22T03:03:46.587Z,101454.02
2018-08-22T03:07:12.184Z,101456.21
2018-08-22T03:10:35.237Z,101456.27
2018-08-22T03:17:18.259Z,101447.37
2018-08-22T03:20:32.107Z,101454.33
2018-08-22T03:23:48.525Z,101456.98
2018-08-22T03:27:20.689Z,101458.86
2018-08-22T03:30:37.619Z,101460.81
2018-08-22T03:33:58.633Z,101465.79
2018-08-22T03:37:36.420Z,101460.73
2018-08-22T03:45:27.159Z,101463.08
2018-08-22T04:24:29.126Z,101460.94
2018-08-22T04:27:48.845Z,101454.73
2018-08-22T04:31:12.598Z,101460.43
2018-08-22T04:34:53.215Z,101457.80
2018-08-22T06:34:14.202Z,101446.81
2018-08-22T06:37:46.477Z,101444.60
2018-08-22T06:49:05.828Z,101440.45
2018-08-22T06:52:35.833Z,101427.42
2018-08-22T06:56:04.568Z,101428.83
2018-08-22T06:59:30.881Z,101431.91
2018-08-22T07:38:55.016Z,101408.80
2018-08-22T07:42:11.677Z,101404.83
2018-08-22T07:45:46.475Z,101402.57
2018-08-22T07:53:28.807Z,101397.84
2018-08-22T08:00:24.619Z,101397.13
2018-08-22T08:03:52.828Z,101399.02
2018-08-22T08:07:13.036Z,101400.06
2018-08-22T08:18:05.451Z,101397.49
2018-08-22T08:21:24.725Z,101392.80
2018-08-22T08:24:37.831Z,101380.17
2018-08-22T09:12:01.335Z,101337.45
2018-08-22T09:15:05.557Z,101331.02
2018-08-22T09:18:09.111Z,101323.69
2018-08-22T09:21:29.378Z,101324.44
2018-08-22T09:44:04.075Z,101308.53
2018-08-22T09:47:07.321Z,101306.17
2018-08-22T09:50:13.514Z,101300.80
2018-08-22T09:53:18.312Z,101303.34
2018-08-22T09:56:21.478Z,101291.63
2018-08-22T09:59:24.979Z,101291.90
2018-08-22T10:02:31.241Z,101283.83
2018-08-22T10:05:39.588Z,101283.70
2018-08-22T10:08:46.378Z,101280.57
2018-08-22T10:11:52.380Z,101277.42
2018-08-22T10:14:58.445Z,101271.78
2018-08-22T10:18:04.155Z,101271.72
2018-08-22T10:21:08.826Z,101264.06
2018-08-22T10:24:12.690Z,101258.36
2018-08-22T10:27:19.499Z,101263.74
2018-08-22T10:30:24.957Z,101262.03
2018-08-22T10:33:29.495Z,101252.79
2018-08-22T10:36:32.854Z,101255.30
2018-08-22T10:39:36.113Z,101255.34
2018-08-22T10:42:39.333Z,101246.55
2018-08-22T10:45:42.481Z,101248.56
2018-08-22T10:48:45.706Z,101248.56
2018-08-22T10:51:48.975Z,101244.52
2018-08-22T10:54:52.251Z,101252.64
2018-08-22T10:57:55.540Z,101244.59
2018-08-22T11:00:58.816Z,101242.01
2018-08-22T11:04:02.000Z,101236.75
2018-08-22T11:07:05.253Z,101236.05
2018-08-22T11:10:08.548Z,101227.59
2018-08-22T11:13:12.082Z,101228.33
2018-08-22T11:16:15.354Z,101227.22
2018-08-22T11:19:19.624Z,101210.11
2018-08-22T11:22:34.152Z,101215.75
2018-08-22T11:25:49.158Z,101212.98
2018-08-22T11:29:03.980Z,101205.14
2018-08-22T11:32:18.685Z,101202.87
2018-08-22T11:35:21.004Z,101203.08
2018-08-22T11:38:24.311Z,101204.39
2018-08-22T11:41:27.561Z,101188.15
2018-08-22T11:44:30.948Z,101190.98
2018-08-22T11:47:34.392Z,101194.60
2018-08-22T11:50:37.804Z,101184.78
2018-08-22T11:53:41.098Z,101183.48
2018-08-22T11:56:44.473Z,101180.89
2018-08-22T11:59:47.880Z,101180.31
2018-08-22T12:02:51.289Z,101176.52
2018-08-22T12:05:54.742Z,101177.13
2018-08-22T12:09:01.134Z,101170.42
2018-08-22T12:12:04.432Z,101157.11
2018-08-22T12:15:07.749Z,101160.00
2018-08-22T12:18:11.075Z,101157.41
2018-08-22T12:21:15.247Z,101155.20
2018-08-22T12:24:19.395Z,101154.80
2018-08-22T12:27:22.771Z,101146.17
2018-08-22T12:30:26.094Z,101153.62
2018-08-22T12:33:29.479Z,101147.70
2018-08-22T12:36:32.777Z,101140.42
2018-08-22T12:39:36.842Z,101140.97
2018-08-22T12:42:40.204Z,101141.02
2018-08-22T12:45:44.421Z,101136.50
2018-08-22T12:48:47.665Z,101127.00
2018-08-22T12:51:50.949Z,101129.30
2018-08-22T12:54:54.286Z,101125.08
2018-08-22T12:57:57.561Z,101121.50
2018-08-22T13:01:00.886Z,101115.08
2018-08-22T13:04:04.408Z,101111.16
2018-08-22T13:07:07.685Z,101112.55
2018-08-22T13:10:11.079Z,101107.30
2018-08-22T13:13:14.414Z,101099.38
2018-08-22T13:16:17.900Z,101091.09
2018-08-22T13:19:21.418Z,101095.55
2018-08-22T13:22:25.623Z,101093.01
2018-08-22T13:25:29.141Z,101090.77
2018-08-22T13:28:33.013Z,101082.02
2018-08-22T13:31:36.362Z,101082.84
2018-08-22T13:34:39.822Z,101087.05
2018-08-22T13:37:43.119Z,101076.38
2018-08-22T13:40:46.423Z,101075.45
2018-08-22T13:43:49.715Z,101068.95
2018-08-22T13:46:53.116Z,101058.03
2018-08-22T13:49:56.457Z,101066.27
2018-08-22T13:52:59.888Z,101059.77
2018-08-22T13:56:03.269Z,101055.05
2018-08-22T13:59:06.497Z,101055.45
2018-08-22T14:02:09.800Z,101057.84
2018-08-22T14:05:13.953Z,101050.55
2018-08-22T14:08:17.327Z,101049.69
2018-08-22T14:11:20.616Z,101041.42
2018-08-22T14:14:24.024Z,101044.40
2018-08-22T14:17:27.624Z,101054.06
2018-08-22T14:20:31.053Z,101051.98
2018-08-22T14:23:34.570Z,101048.69
2018-08-22T14:26:38.364Z,101046.81
2018-08-22T14:29:42.116Z,101042.80
2018-08-22T14:32:45.654Z,101034.89
2018-08-22T14:35:49.056Z,101030.80
2018-08-22T14:38:52.556Z,101023.16
2018-08-22T14:41:55.956Z,101020.21
2018-08-22T14:44:59.428Z,101021.44
2018-08-22T14:48:02.869Z,101023.87
2018-08-22T14:51:06.968Z,101011.95
2018-08-22T14:54:10.464Z,101014.79
2018-08-22T14:57:13.833Z,101007.33
2018-08-22T15:00:17.408Z,100998.20
2018-08-22T15:03:21.188Z,100999.27
2018-08-22T15:06:25.233Z,100999.05
2018-08-22T15:09:28.915Z,100996.69
2018-08-22T15:12:32.314Z,100994.53
2018-08-22T15:15:35.743Z,100990.23
2018-08-22T15:18:39.326Z,100990.04
2018-08-22T15:21:42.819Z,100991.52
2018-08-22T15:24:46.420Z,100986.19
2018-08-22T15:27:50.282Z,100988.94
2018-08-22T15:30:53.782Z,100981.80
2018-08-22T15:33:57.281Z,100979.65
2018-08-22T15:37:00.958Z,100969.09
2018-08-22T15:40:04.455Z,100965.47
2018-08-22T15:43:09.169Z,100961.26
2018-08-22T15:46:12.716Z,100962.35
2018-08-22T15:49:16.393Z,100956.36
2018-08-22T15:52:22.049Z,100961.48
2018-08-22T15:55:25.709Z,100956.67
2018-08-22T15:58:29.268Z,100956.67
2018-08-22T16:01:33.383Z,100948.42
2018-08-22T16:04:52.891Z,100949.48
2018-08-22T16:07:56.429Z,100949.02
2018-08-22T16:11:04.528Z,100945.52
2018-08-22T16:14:08.364Z,100943.83
2018-08-22T16:17:12.369Z,100938.56
2018-08-22T16:20:16.939Z,100934.67
2018-08-22T16:23:23.102Z,100930.01
2018-08-22T16:26:27.732Z,100932.75
2018-08-22T16:29:33.136Z,100933.06
2018-08-22T16:32:36.927Z,100924.52
2018-08-22T16:35:43.615Z,100921.42
2018-08-22T16:38:48.011Z,100910.89
2018-08-22T16:41:51.789Z,100919.74
2018-08-22T16:44:55.752Z,100913.12
2018-08-22T16:47:59.227Z,100913.11
2018-08-22T16:51:03.538Z,100912.77
2018-08-22T16:54:09.731Z,100915.56
2018-08-22T16:57:13.199Z,100910.31
2018-08-22T17:00:16.911Z,100909.66
2018-08-22T17:03:20.466Z,100909.70
2018-08-22T17:06:27.178Z,100914.74
2018-08-22T17:09:30.537Z,100907.12
2018-08-22T17:12:40.120Z,100910.03
2018-08-22T17:15:44.093Z,100911.74
2018-08-22T17:18:47.884Z,100907.06
2018-08-22T17:21:54.192Z,100909.08
2018-08-22T17:24:59.487Z,100909.01
2018-08-22T17:28:05.042Z,100901.75
2018-08-22T17:31:13.876Z,100903.41
2018-08-22T17:34:17.644Z,100903.80
2018-08-22T17:37:25.049Z,100897.94
2018-08-22T17:40:30.007Z,100895.54
2018-08-22T17:44:08.463Z,100899.72
2018-08-22T17:47:20.589Z,100898.47
2018-08-22T17:50:24.313Z,100898.35
2018-08-22T17:53:28.463Z,100902.58
2018-08-22T17:56:33.650Z,100899.09
2018-08-22T17:59:38.053Z,100895.72
2018-08-22T18:02:41.902Z,100891.80
2018-08-22T18:05:45.546Z,100894.07
2018-08-22T18:08:50.439Z,100893.76
2018-08-22T18:11:54.443Z,100895.64
2018-08-22T18:15:01.244Z,100901.31
2018-08-22T18:18:06.883Z,100893.57
2018-08-22T18:21:10.559Z,100897.86
2018-08-22T18:24:15.325Z,100897.11
2018-08-22T18:27:19.015Z,100892.46
2018-08-22T18:30:22.758Z,100900.77
2018-08-22T18:33:27.146Z,100902.83
2018-08-22T18:36:31.947Z,100908.05
2018-08-22T18:39:35.941Z,100908.39
2018-08-22T18:42:41.282Z,100908.32
2018-08-22T18:45:58.125Z,100905.67
2018-08-22T18:49:06.546Z,100909.83
2018-08-22T18:52:12.122Z,100916.14
2018-08-22T18:55:29.057Z,100910.11
2018-08-22T18:58:35.311Z,100916.02
2018-08-22T19:01:41.676Z,100914.11
2018-08-22T19:04:45.746Z,100915.51
2018-08-22T19:08:04.064Z,100909.46
2018-08-22T19:11:08.564Z,100911.44
2018-08-22T19:14:20.839Z,100907.88
2018-08-22T19:17:25.538Z,100903.64
2018-08-22T19:20:29.405Z,100901.63
2018-08-22T19:23:33.179Z,100905.19
2018-08-22T19:26:36.933Z,100906.93
2018-08-22T19:29:40.657Z,100909.79
2018-08-22T19:32:44.429Z,100907.13
2018-08-22T19:35:48.282Z,100909.20
2018-08-22T19:38:51.863Z,100909.40
2018-08-22T19:41:55.398Z,100912.69
2018-08-22T19:44:59.227Z,100915.45
2018-08-22T19:48:03.166Z,100914.83
2018-08-22T19:51:06.738Z,100911.84
2018-08-22T19:54:10.537Z,100911.14
2018-08-22T19:57:14.296Z,100907.92
2018-08-22T20:00:18.281Z,100907.23
2018-08-22T20:03:25.937Z,100916.25
2018-08-22T20:06:31.284Z,100916.09
2018-08-22T20:09:38.258Z,100916.59
2018-08-22T20:12:44.946Z,100908.77
2018-08-22T20:15:49.083Z,100916.06
2018-08-22T20:18:56.845Z,100913.70
2018-08-22T20:22:00.488Z,100907.44
2018-08-22T20:25:04.218Z,100908.80
2018-08-22T20:28:07.758Z,100902.67
2018-08-22T20:31:13.483Z,100910.66
2018-08-22T20:34:19.436Z,100909.45
2018-08-22T20:37:22.834Z,100904.72
2018-08-22T20:40:26.375Z,100910.31
2018-08-22T20:43:29.963Z,100910.15
2018-08-22T20:46:33.428Z,100907.60
2018-08-22T20:49:37.001Z,100905.22
2018-08-22T20:52:40.946Z,100900.80
2018-08-22T20:55:46.267Z,100902.00
2018-08-22T20:58:51.525Z,100902.00
2018-08-22T21:02:02.385Z,100901.98
2018-08-22T21:05:10.060Z,100898.77
2018-08-22T21:08:14.793Z,100898.70
2018-08-22T21:14:30.534Z,100892.07
2018-08-22T21:17:36.433Z,100900.05
2018-08-22T21:20:42.458Z,100895.16
2018-08-22T21:23:50.258Z,100898.31
2018-08-22T21:26:55.973Z,100896.96
2018-08-22T21:30:01.074Z,100894.56
2018-08-22T21:33:08.438Z,100894.04
2018-08-22T21:36:16.038Z,100884.86
2018-08-22T21:39:26.448Z,100895.52
2018-08-22T21:57:26.937Z,100883.11
2018-08-22T22:00:39.768Z,100884.41
2018-08-22T22:03:43.278Z,100881.25
2018-08-22T22:06:46.693Z,100881.67
2018-08-22T22:09:51.868Z,100878.94
2018-08-22T22:12:55.918Z,100878.74
2018-08-22T22:16:02.630Z,100877.03
2018-08-22T22:19:06.302Z,100875.96
2018-08-22T22:22:09.705Z,100873.81
2018-08-22T22:25:15.260Z,100871.24
2018-08-22T22:28:20.424Z,100870.17
2018-08-22T22:31:24.520Z,100864.77
2018-08-22T22:34:27.895Z,100863.53
2018-08-22T22:37:31.352Z,100865.16
2018-08-22T22:40:34.958Z,100862.18
2018-08-22T22:43:38.372Z,100857.91
2018-08-22T22:46:41.752Z,100861.11
2018-08-22T22:49:45.071Z,100855.72
2018-08-22T22:52:48.570Z,100855.97
2018-08-22T22:55:52.176Z,100854.44
2018-08-22T22:58:55.621Z,100854.77
2018-08-22T23:01:59.051Z,100851.02
2018-08-22T23:05:02.774Z,100845.48
2018-08-22T23:08:06.029Z,100848.80
2018-08-22T23:11:09.384Z,100853.79
2018-08-22T23:14:12.886Z,100844.43
2018-08-22T23:17:16.212Z,100841.16
2018-08-22T23:20:28.137Z,100836.61
2018-08-22T23:23:33.840Z,100834.11
2018-08-22T23:26:37.036Z,100828.76
2018-08-22T23:29:40.355Z,100826.69
2018-08-22T23:32:43.664Z,100821.05
2018-08-22T23:35:46.961Z,100825.01
2018-08-22T23:38:50.271Z,100811.80
2018-08-22T23:41:53.500Z,100812.22
2018-08-22T23:45:01.005Z,100810.00
2018-08-22T23:48:04.752Z,100805.91
2018-08-22T23:51:10.846Z,100801.55
2018-08-22T23:54:14.857Z,100807.83
2018-08-22T23:57:21.128Z,100807.56
